sensor_id;sensor_type;location;lat;lon;timestamp;temperature;humidity
23721;DHT22;42950;52.134;5.578;2023-12-22T00:01:38;7.50;99.90
23721;DHT22;42950;52.134;5.578;2023-12-22T00:04:04;7.50;99.90
23721;DHT22;42950;52.134;5.578;2023-12-22T00:06:32;7.50;99.90
23721;DHT22;42950;52.134;5.578;2023-12-22T00:08:58;7.50;99.90
23721;DHT22;42950;52.134;5.578;2023-12-22T00:11:23;7.50;99.90
23721;DHT22;42950;52.134;5.578;2023-12-22T00:13:49;7.50;99.90
23721;DHT22;42950;52.134;5.578;2023-12-22T00:16:14;7.50;99.90
23721;DHT22;42950;52.134;5.578;2023-12-22T00:18:40;7.40;99.90
23721;DHT22;42950;52.134;5.578;2023-12-22T00:21:10;6.90;99.90
23721;DHT22;42950;52.134;5.578;2023-12-22T00:23:36;6.50;99.90
23721;DHT22;42950;52.134;5.578;2023-12-22T00:26:02;6.50;99.90
23721;DHT22;42950;52.134;5.578;2023-12-22T00:28:27;6.40;99.90
23721;DHT22;42950;52.134;5.578;2023-12-22T00:30:53;6.30;99.90
23721;DHT22;42950;52.134;5.578;2023-12-22T00:33:18;6.30;99.90
23721;DHT22;42950;52.134;5.578;2023-12-22T00:35:44;6.30;99.90
23721;DHT22;42950;52.134;5.578;2023-12-22T00:38:09;6.30;99.90
23721;DHT22;42950;52.134;5.578;2023-12-22T00:40:35;6.30;99.90
23721;DHT22;42950;52.134;5.578;2023-12-22T00:43:01;6.30;99.90
23721;DHT22;42950;52.134;5.578;2023-12-22T00:45:26;6.30;99.90
23721;DHT22;42950;52.134;5.578;2023-12-22T00:47:52;6.30;99.90
23721;DHT22;42950;52.134;5.578;2023-12-22T00:50:18;6.40;99.90
23721;DHT22;42950;52.134;5.578;2023-12-22T00:52:43;6.40;99.90
23721;DHT22;42950;52.134;5.578;2023-12-22T00:55:09;6.30;99.90
23721;DHT22;42950;52.134;5.578;2023-12-22T00:57:35;6.30;99.90
23721;DHT22;42950;52.134;5.578;2023-12-22T01:00:00;6.40;99.90
23721;DHT22;42950;52.134;5.578;2023-12-22T01:02:26;6.30;99.90
23721;DHT22;42950;52.134;5.578;2023-12-22T01:04:51;6.40;99.90
23721;DHT22;42950;52.134;5.578;2023-12-22T01:07:17;6.40;99.90
23721;DHT22;42950;52.134;5.578;2023-12-22T01:09:44;6.40;99.90
23721;DHT22;42950;52.134;5.578;2023-12-22T01:12:09;6.40;99.90
23721;DHT22;42950;52.134;5.578;2023-12-22T01:14:36;6.50;99.90
23721;DHT22;42950;52.134;5.578;2023-12-22T01:17:01;6.50;99.90
23721;DHT22;42950;52.134;5.578;2023-12-22T01:19:27;6.50;99.90
23721;DHT22;42950;52.134;5.578;2023-12-22T01:21:52;6.50;99.90
23721;DHT22;42950;52.134;5.578;2023-12-22T01:24:18;6.60;99.90
23721;DHT22;42950;52.134;5.578;2023-12-22T01:26:43;6.60;99.90
23721;DHT22;42950;52.134;5.578;2023-12-22T01:29:09;6.60;99.90
23721;DHT22;42950;52.134;5.578;2023-12-22T01:31:35;6.60;99.90
23721;DHT22;42950;52.134;5.578;2023-12-22T01:34:00;6.70;99.90
23721;DHT22;42950;52.134;5.578;2023-12-22T01:36:26;6.70;99.90
23721;DHT22;42950;52.134;5.578;2023-12-22T01:38:52;6.60;99.90
23721;DHT22;42950;52.134;5.578;2023-12-22T01:41:17;6.60;99.90
23721;DHT22;42950;52.134;5.578;2023-12-22T01:43:43;6.60;99.90
23721;DHT22;42950;52.134;5.578;2023-12-22T01:46:09;6.60;99.90
23721;DHT22;42950;52.134;5.578;2023-12-22T01:48:36;6.50;99.90
23721;DHT22;42950;52.134;5.578;2023-12-22T01:51:02;6.50;99.90
23721;DHT22;42950;52.134;5.578;2023-12-22T01:53:29;6.50;99.90
23721;DHT22;42950;52.134;5.578;2023-12-22T01:55:56;6.50;99.90
23721;DHT22;42950;52.134;5.578;2023-12-22T01:58:23;6.60;99.90
23721;DHT22;42950;52.134;5.578;2023-12-22T02:00:49;6.50;99.90
23721;DHT22;42950;52.134;5.578;2023-12-22T02:03:16;6.50;99.90
23721;DHT22;42950;52.134;5.578;2023-12-22T02:05:42;6.50;99.90
23721;DHT22;42950;52.134;5.578;2023-12-22T02:08:09;6.50;99.90
23721;DHT22;42950;52.134;5.578;2023-12-22T02:10:34;6.50;99.90
23721;DHT22;42950;52.134;5.578;2023-12-22T02:13:00;6.60;99.90
23721;DHT22;42950;52.134;5.578;2023-12-22T02:15:26;6.60;99.90
23721;DHT22;42950;52.134;5.578;2023-12-22T02:18:10;6.60;99.90
23721;DHT22;42950;52.134;5.578;2023-12-22T02:20:38;6.60;99.90
23721;DHT22;42950;52.134;5.578;2023-12-22T02:23:03;6.60;99.90
23721;DHT22;42950;52.134;5.578;2023-12-22T02:25:29;6.60;99.90
23721;DHT22;42950;52.134;5.578;2023-12-22T02:28:02;6.70;99.90
23721;DHT22;42950;52.134;5.578;2023-12-22T02:30:31;6.70;99.90
23721;DHT22;42950;52.134;5.578;2023-12-22T02:33:04;6.70;99.90
23721;DHT22;42950;52.134;5.578;2023-12-22T02:35:33;6.80;99.90
23721;DHT22;42950;52.134;5.578;2023-12-22T02:38:02;6.70;99.90
23721;DHT22;42950;52.134;5.578;2023-12-22T02:40:28;6.70;99.90
23721;DHT22;42950;52.134;5.578;2023-12-22T02:42:54;6.70;99.90
23721;DHT22;42950;52.134;5.578;2023-12-22T02:45:20;6.70;99.90
23721;DHT22;42950;52.134;5.578;2023-12-22T02:47:46;6.80;99.90
23721;DHT22;42950;52.134;5.578;2023-12-22T02:50:14;6.80;99.90
23721;DHT22;42950;52.134;5.578;2023-12-22T02:52:40;6.80;99.90
23721;DHT22;42950;52.134;5.578;2023-12-22T02:55:07;6.80;99.90
23721;DHT22;42950;52.134;5.578;2023-12-22T02:57:32;6.90;99.90
23721;DHT22;42950;52.134;5.578;2023-12-22T02:59:58;6.90;99.90
23721;DHT22;42950;52.134;5.578;2023-12-22T03:02:24;7.00;99.90
23721;DHT22;42950;52.134;5.578;2023-12-22T03:04:50;7.00;99.90
23721;DHT22;42950;52.134;5.578;2023-12-22T03:07:15;7.10;99.90
23721;DHT22;42950;52.134;5.578;2023-12-22T03:09:41;6.90;99.90
23721;DHT22;42950;52.134;5.578;2023-12-22T03:12:08;6.70;99.90
23721;DHT22;42950;52.134;5.578;2023-12-22T03:14:34;6.70;99.90
23721;DHT22;42950;52.134;5.578;2023-12-22T03:17:00;6.50;99.90
23721;DHT22;42950;52.134;5.578;2023-12-22T03:19:26;6.30;99.90
23721;DHT22;42950;52.134;5.578;2023-12-22T03:21:52;6.20;99.90
23721;DHT22;42950;52.134;5.578;2023-12-22T03:24:17;6.10;99.90
23721;DHT22;42950;52.134;5.578;2023-12-22T03:26:48;6.10;99.90
23721;DHT22;42950;52.134;5.578;2023-12-22T03:29:13;6.00;99.90
23721;DHT22;42950;52.134;5.578;2023-12-22T03:31:39;6.00;99.90
23721;DHT22;42950;52.134;5.578;2023-12-22T03:34:05;6.00;99.90
23721;DHT22;42950;52.134;5.578;2023-12-22T03:36:30;5.90;99.90
23721;DHT22;42950;52.134;5.578;2023-12-22T03:38:56;5.90;99.90
23721;DHT22;42950;52.134;5.578;2023-12-22T03:41:21;6.00;99.90
23721;DHT22;42950;52.134;5.578;2023-12-22T03:43:47;6.00;99.90
23721;DHT22;42950;52.134;5.578;2023-12-22T03:46:12;5.90;99.90
23721;DHT22;42950;52.134;5.578;2023-12-22T03:48:38;5.80;99.90
23721;DHT22;42950;52.134;5.578;2023-12-22T03:51:03;5.80;99.90
23721;DHT22;42950;52.134;5.578;2023-12-22T03:53:29;5.80;99.90
23721;DHT22;42950;52.134;5.578;2023-12-22T03:55:55;5.80;99.90
23721;DHT22;42950;52.134;5.578;2023-12-22T03:58:20;5.90;99.90
23721;DHT22;42950;52.134;5.578;2023-12-22T04:00:46;5.80;99.90
23721;DHT22;42950;52.134;5.578;2023-12-22T04:03:11;5.90;99.90
23721;DHT22;42950;52.134;5.578;2023-12-22T04:05:37;5.90;99.90
23721;DHT22;42950;52.134;5.578;2023-12-22T04:08:03;6.00;99.90
23721;DHT22;42950;52.134;5.578;2023-12-22T04:10:29;6.10;99.90
23721;DHT22;42950;52.134;5.578;2023-12-22T04:12:55;6.20;99.90
23721;DHT22;42950;52.134;5.578;2023-12-22T04:15:21;6.20;99.90
23721;DHT22;42950;52.134;5.578;2023-12-22T04:17:46;6.30;99.90
23721;DHT22;42950;52.134;5.578;2023-12-22T04:20:12;6.30;99.90
23721;DHT22;42950;52.134;5.578;2023-12-22T04:22:39;6.40;99.90
23721;DHT22;42950;52.134;5.578;2023-12-22T04:25:04;6.50;99.90
23721;DHT22;42950;52.134;5.578;2023-12-22T04:27:31;6.50;99.90
23721;DHT22;42950;52.134;5.578;2023-12-22T04:29:57;6.60;99.90
23721;DHT22;42950;52.134;5.578;2023-12-22T04:32:22;6.70;99.90
23721;DHT22;42950;52.134;5.578;2023-12-22T04:34:48;6.70;99.90
23721;DHT22;42950;52.134;5.578;2023-12-22T04:37:14;6.70;99.90
23721;DHT22;42950;52.134;5.578;2023-12-22T04:39:40;6.70;99.90
23721;DHT22;42950;52.134;5.578;2023-12-22T04:42:05;6.80;99.90
23721;DHT22;42950;52.134;5.578;2023-12-22T04:44:31;6.80;99.90
23721;DHT22;42950;52.134;5.578;2023-12-22T04:46:56;6.70;99.90
23721;DHT22;42950;52.134;5.578;2023-12-22T04:49:22;6.80;99.90
23721;DHT22;42950;52.134;5.578;2023-12-22T04:51:48;6.80;99.90
23721;DHT22;42950;52.134;5.578;2023-12-22T04:54:13;6.80;99.90
23721;DHT22;42950;52.134;5.578;2023-12-22T04:56:39;6.80;99.90
23721;DHT22;42950;52.134;5.578;2023-12-22T04:59:04;6.70;99.90
23721;DHT22;42950;52.134;5.578;2023-12-22T05:01:30;6.80;99.90
23721;DHT22;42950;52.134;5.578;2023-12-22T05:03:55;6.80;99.90
23721;DHT22;42950;52.134;5.578;2023-12-22T05:06:22;6.80;99.90
23721;DHT22;42950;52.134;5.578;2023-12-22T05:08:48;6.80;99.90
23721;DHT22;42950;52.134;5.578;2023-12-22T05:11:13;6.90;99.90
23721;DHT22;42950;52.134;5.578;2023-12-22T05:13:39;6.90;99.90
23721;DHT22;42950;52.134;5.578;2023-12-22T05:16:05;6.90;99.90
23721;DHT22;42950;52.134;5.578;2023-12-22T05:18:31;6.90;99.90
23721;DHT22;42950;52.134;5.578;2023-12-22T05:20:57;6.80;99.90
23721;DHT22;42950;52.134;5.578;2023-12-22T05:23:22;6.90;99.90
23721;DHT22;42950;52.134;5.578;2023-12-22T05:25:48;6.90;99.90
23721;DHT22;42950;52.134;5.578;2023-12-22T05:28:13;6.90;99.90
23721;DHT22;42950;52.134;5.578;2023-12-22T05:30:40;6.90;99.90
23721;DHT22;42950;52.134;5.578;2023-12-22T05:33:05;6.90;99.90
23721;DHT22;42950;52.134;5.578;2023-12-22T05:35:32;6.90;99.90
23721;DHT22;42950;52.134;5.578;2023-12-22T05:37:58;7.00;99.90
23721;DHT22;42950;52.134;5.578;2023-12-22T05:40:23;7.00;99.90
23721;DHT22;42950;52.134;5.578;2023-12-22T05:42:50;7.00;99.90
23721;DHT22;42950;52.134;5.578;2023-12-22T05:45:16;7.00;99.90
23721;DHT22;42950;52.134;5.578;2023-12-22T05:47:42;7.00;99.90
23721;DHT22;42950;52.134;5.578;2023-12-22T05:50:08;7.00;99.90
23721;DHT22;42950;52.134;5.578;2023-12-22T05:52:34;7.00;99.90
23721;DHT22;42950;52.134;5.578;2023-12-22T05:54:59;7.00;99.90
23721;DHT22;42950;52.134;5.578;2023-12-22T05:57:26;7.00;99.90
23721;DHT22;42950;52.134;5.578;2023-12-22T05:59:52;7.10;99.90
23721;DHT22;42950;52.134;5.578;2023-12-22T06:02:18;7.10;99.90
23721;DHT22;42950;52.134;5.578;2023-12-22T06:04:44;7.20;99.90
23721;DHT22;42950;52.134;5.578;2023-12-22T06:07:10;7.40;99.90
23721;DHT22;42950;52.134;5.578;2023-12-22T06:09:36;7.50;99.90
23721;DHT22;42950;52.134;5.578;2023-12-22T06:12:02;7.70;99.90
23721;DHT22;42950;52.134;5.578;2023-12-22T06:14:28;7.80;99.90
23721;DHT22;42950;52.134;5.578;2023-12-22T06:16:54;7.90;99.90
23721;DHT22;42950;52.134;5.578;2023-12-22T06:19:22;7.90;99.90
23721;DHT22;42950;52.134;5.578;2023-12-22T06:21:49;8.00;99.90
23721;DHT22;42950;52.134;5.578;2023-12-22T06:24:15;8.00;99.90
23721;DHT22;42950;52.134;5.578;2023-12-22T06:26:42;8.10;99.90
23721;DHT22;42950;52.134;5.578;2023-12-22T06:29:07;8.10;99.90
23721;DHT22;42950;52.134;5.578;2023-12-22T06:31:34;8.20;99.90
23721;DHT22;42950;52.134;5.578;2023-12-22T06:34:00;8.20;99.90
23721;DHT22;42950;52.134;5.578;2023-12-22T06:36:29;8.20;99.90
23721;DHT22;42950;52.134;5.578;2023-12-22T06:38:55;8.20;99.90
23721;DHT22;42950;52.134;5.578;2023-12-22T06:41:25;8.20;99.90
23721;DHT22;42950;52.134;5.578;2023-12-22T06:43:52;8.30;99.90
23721;DHT22;42950;52.134;5.578;2023-12-22T06:46:24;8.30;99.90
23721;DHT22;42950;52.134;5.578;2023-12-22T06:48:53;8.30;99.90
23721;DHT22;42950;52.134;5.578;2023-12-22T06:51:27;8.30;99.90
23721;DHT22;42950;52.134;5.578;2023-12-22T06:53:54;8.40;99.90
23721;DHT22;42950;52.134;5.578;2023-12-22T06:56:24;8.40;99.90
23721;DHT22;42950;52.134;5.578;2023-12-22T06:58:52;8.40;99.90
23721;DHT22;42950;52.134;5.578;2023-12-22T07:01:29;8.50;99.90
23721;DHT22;42950;52.134;5.578;2023-12-22T07:03:55;8.50;99.90
23721;DHT22;42950;52.134;5.578;2023-12-22T07:06:22;8.50;99.90
23721;DHT22;42950;52.134;5.578;2023-12-22T07:11:48;8.60;99.90
23721;DHT22;42950;52.134;5.578;2023-12-22T07:14:14;8.60;99.90
23721;DHT22;42950;52.134;5.578;2023-12-22T07:16:41;8.60;99.90
23721;DHT22;42950;52.134;5.578;2023-12-22T07:19:10;8.60;99.90
23721;DHT22;42950;52.134;5.578;2023-12-22T07:21:39;8.60;99.90
23721;DHT22;42950;52.134;5.578;2023-12-22T07:24:06;8.60;99.90
23721;DHT22;42950;52.134;5.578;2023-12-22T07:26:33;8.70;99.90
23721;DHT22;42950;52.134;5.578;2023-12-22T07:28:59;8.70;99.90
23721;DHT22;42950;52.134;5.578;2023-12-22T07:31:25;8.70;99.90
23721;DHT22;42950;52.134;5.578;2023-12-22T07:33:51;8.70;99.90
23721;DHT22;42950;52.134;5.578;2023-12-22T07:36:17;8.80;99.90
23721;DHT22;42950;52.134;5.578;2023-12-22T07:38:44;8.80;99.90
23721;DHT22;42950;52.134;5.578;2023-12-22T07:41:10;8.70;99.90
23721;DHT22;42950;52.134;5.578;2023-12-22T07:43:36;8.80;99.90
23721;DHT22;42950;52.134;5.578;2023-12-22T07:46:02;8.90;99.90
23721;DHT22;42950;52.134;5.578;2023-12-22T07:48:28;8.80;99.90
23721;DHT22;42950;52.134;5.578;2023-12-22T07:50:53;8.80;99.90
23721;DHT22;42950;52.134;5.578;2023-12-22T07:53:19;8.90;99.90
23721;DHT22;42950;52.134;5.578;2023-12-22T07:55:45;8.90;99.90
23721;DHT22;42950;52.134;5.578;2023-12-22T07:58:12;8.90;99.90
23721;DHT22;42950;52.134;5.578;2023-12-22T08:00:40;8.90;99.90
23721;DHT22;42950;52.134;5.578;2023-12-22T08:03:08;8.80;99.90
23721;DHT22;42950;52.134;5.578;2023-12-22T08:05:36;8.60;99.90
23721;DHT22;42950;52.134;5.578;2023-12-22T08:08:01;8.50;99.90
23721;DHT22;42950;52.134;5.578;2023-12-22T08:10:27;8.30;99.90
23721;DHT22;42950;52.134;5.578;2023-12-22T08:12:53;8.10;99.90
23721;DHT22;42950;52.134;5.578;2023-12-22T08:15:18;8.00;99.90
23721;DHT22;42950;52.134;5.578;2023-12-22T08:17:50;8.00;99.90
23721;DHT22;42950;52.134;5.578;2023-12-22T08:20:20;8.00;99.90
23721;DHT22;42950;52.134;5.578;2023-12-22T08:22:50;8.00;99.90
23721;DHT22;42950;52.134;5.578;2023-12-22T08:25:17;8.00;99.90
23721;DHT22;42950;52.134;5.578;2023-12-22T08:27:46;8.00;99.90
23721;DHT22;42950;52.134;5.578;2023-12-22T08:30:12;8.00;99.90
23721;DHT22;42950;52.134;5.578;2023-12-22T08:32:38;8.10;99.90
23721;DHT22;42950;52.134;5.578;2023-12-22T08:35:04;8.10;99.90
23721;DHT22;42950;52.134;5.578;2023-12-22T08:37:30;8.20;99.90
23721;DHT22;42950;52.134;5.578;2023-12-22T08:39:56;8.20;99.90
23721;DHT22;42950;52.134;5.578;2023-12-22T08:42:22;8.30;99.90
23721;DHT22;42950;52.134;5.578;2023-12-22T08:44:48;8.30;99.90
23721;DHT22;42950;52.134;5.578;2023-12-22T08:47:13;8.40;99.90
23721;DHT22;42950;52.134;5.578;2023-12-22T08:49:39;8.40;99.90
23721;DHT22;42950;52.134;5.578;2023-12-22T08:52:04;8.40;99.90
23721;DHT22;42950;52.134;5.578;2023-12-22T08:54:30;8.50;99.90
23721;DHT22;42950;52.134;5.578;2023-12-22T08:56:56;8.50;99.90
23721;DHT22;42950;52.134;5.578;2023-12-22T08:59:21;8.50;99.90
23721;DHT22;42950;52.134;5.578;2023-12-22T09:01:47;8.50;99.90
23721;DHT22;42950;52.134;5.578;2023-12-22T09:04:13;8.60;99.90
23721;DHT22;42950;52.134;5.578;2023-12-22T09:06:39;8.50;99.90
23721;DHT22;42950;52.134;5.578;2023-12-22T09:09:05;8.60;99.90
23721;DHT22;42950;52.134;5.578;2023-12-22T09:11:31;8.60;99.90
23721;DHT22;42950;52.134;5.578;2023-12-22T09:13:57;8.70;99.90
23721;DHT22;42950;52.134;5.578;2023-12-22T09:16:24;8.70;99.90
23721;DHT22;42950;52.134;5.578;2023-12-22T09:18:52;8.80;99.90
23721;DHT22;42950;52.134;5.578;2023-12-22T09:21:18;8.80;99.90
23721;DHT22;42950;52.134;5.578;2023-12-22T09:23:45;8.80;99.90
23721;DHT22;42950;52.134;5.578;2023-12-22T09:26:12;8.90;99.90
23721;DHT22;42950;52.134;5.578;2023-12-22T09:28:39;9.00;99.90
23721;DHT22;42950;52.134;5.578;2023-12-22T09:31:04;9.10;99.90
23721;DHT22;42950;52.134;5.578;2023-12-22T09:33:32;9.10;99.90
23721;DHT22;42950;52.134;5.578;2023-12-22T09:35:57;9.10;99.90
23721;DHT22;42950;52.134;5.578;2023-12-22T09:38:23;9.10;99.90
23721;DHT22;42950;52.134;5.578;2023-12-22T09:40:50;9.10;99.90
23721;DHT22;42950;52.134;5.578;2023-12-22T09:43:15;9.00;99.90
23721;DHT22;42950;52.134;5.578;2023-12-22T09:45:41;8.90;99.90
23721;DHT22;42950;52.134;5.578;2023-12-22T09:48:07;8.90;99.90
23721;DHT22;42950;52.134;5.578;2023-12-22T09:50:34;8.90;99.90
23721;DHT22;42950;52.134;5.578;2023-12-22T09:53:00;8.80;99.90
23721;DHT22;42950;52.134;5.578;2023-12-22T09:55:27;8.80;99.90
23721;DHT22;42950;52.134;5.578;2023-12-22T09:57:54;8.70;99.90
23721;DHT22;42950;52.134;5.578;2023-12-22T10:00:22;8.70;99.90
23721;DHT22;42950;52.134;5.578;2023-12-22T10:02:49;8.80;99.90
23721;DHT22;42950;52.134;5.578;2023-12-22T10:05:14;8.80;99.90
23721;DHT22;42950;52.134;5.578;2023-12-22T10:07:44;8.80;99.90
23721;DHT22;42950;52.134;5.578;2023-12-22T10:10:11;8.80;99.90
23721;DHT22;42950;52.134;5.578;2023-12-22T10:12:38;8.80;99.90
23721;DHT22;42950;52.134;5.578;2023-12-22T10:15:08;8.90;99.90
23721;DHT22;42950;52.134;5.578;2023-12-22T10:17:34;8.90;99.90
23721;DHT22;42950;52.134;5.578;2023-12-22T10:20:01;8.90;99.90
23721;DHT22;42950;52.134;5.578;2023-12-22T10:22:27;9.00;99.90
23721;DHT22;42950;52.134;5.578;2023-12-22T10:24:52;9.00;99.90
23721;DHT22;42950;52.134;5.578;2023-12-22T10:27:19;9.20;99.90
23721;DHT22;42950;52.134;5.578;2023-12-22T10:29:54;9.30;99.90
23721;DHT22;42950;52.134;5.578;2023-12-22T10:32:20;9.30;99.90
23721;DHT22;42950;52.134;5.578;2023-12-22T10:34:47;9.40;99.90
23721;DHT22;42950;52.134;5.578;2023-12-22T10:37:13;9.60;99.90
23721;DHT22;42950;52.134;5.578;2023-12-22T10:39:38;9.70;99.90
23721;DHT22;42950;52.134;5.578;2023-12-22T10:42:04;9.80;99.90
23721;DHT22;42950;52.134;5.578;2023-12-22T10:44:30;9.80;99.90
23721;DHT22;42950;52.134;5.578;2023-12-22T10:46:57;9.80;99.90
23721;DHT22;42950;52.134;5.578;2023-12-22T10:49:24;9.90;99.90
23721;DHT22;42950;52.134;5.578;2023-12-22T10:51:50;9.90;99.90
23721;DHT22;42950;52.134;5.578;2023-12-22T10:54:17;9.80;99.90
23721;DHT22;42950;52.134;5.578;2023-12-22T10:56:42;9.90;99.90
23721;DHT22;42950;52.134;5.578;2023-12-22T10:59:11;9.80;99.90
23721;DHT22;42950;52.134;5.578;2023-12-22T11:01:37;9.70;99.90
23721;DHT22;42950;52.134;5.578;2023-12-22T11:04:07;9.70;99.90
23721;DHT22;42950;52.134;5.578;2023-12-22T11:06:37;9.70;99.90
23721;DHT22;42950;52.134;5.578;2023-12-22T11:09:10;9.70;99.90
23721;DHT22;42950;52.134;5.578;2023-12-22T11:11:37;9.70;99.90
23721;DHT22;42950;52.134;5.578;2023-12-22T11:14:06;9.80;99.90
23721;DHT22;42950;52.134;5.578;2023-12-22T11:16:34;9.80;99.90
23721;DHT22;42950;52.134;5.578;2023-12-22T11:19:01;9.80;99.90
23721;DHT22;42950;52.134;5.578;2023-12-22T11:21:28;9.80;99.90
23721;DHT22;42950;52.134;5.578;2023-12-22T11:23:57;9.80;99.90
23721;DHT22;42950;52.134;5.578;2023-12-22T11:26:24;9.90;99.90
23721;DHT22;42950;52.134;5.578;2023-12-22T11:28:51;9.90;99.90
23721;DHT22;42950;52.134;5.578;2023-12-22T11:31:18;9.90;99.90
23721;DHT22;42950;52.134;5.578;2023-12-22T11:33:45;9.90;99.90
23721;DHT22;42950;52.134;5.578;2023-12-22T11:36:12;9.90;99.90
23721;DHT22;42950;52.134;5.578;2023-12-22T11:38:40;10.00;99.90
23721;DHT22;42950;52.134;5.578;2023-12-22T11:41:12;10.00;99.90
23721;DHT22;42950;52.134;5.578;2023-12-22T11:43:40;10.00;99.90
23721;DHT22;42950;52.134;5.578;2023-12-22T11:46:06;10.00;99.90
23721;DHT22;42950;52.134;5.578;2023-12-22T11:48:32;9.90;99.90
23721;DHT22;42950;52.134;5.578;2023-12-22T11:50:58;9.80;99.90
23721;DHT22;42950;52.134;5.578;2023-12-22T11:53:25;9.90;99.90
23721;DHT22;42950;52.134;5.578;2023-12-22T11:56:07;9.90;99.90
23721;DHT22;42950;52.134;5.578;2023-12-22T12:01:12;9.90;99.90
23721;DHT22;42950;52.134;5.578;2023-12-22T12:03:59;9.90;99.90
23721;DHT22;42950;52.134;5.578;2023-12-22T12:08:51;9.80;99.90
23721;DHT22;42950;52.134;5.578;2023-12-22T12:11:22;9.80;99.90
23721;DHT22;42950;52.134;5.578;2023-12-22T12:13:50;9.90;99.90
23721;DHT22;42950;52.134;5.578;2023-12-22T12:16:20;9.90;99.90
23721;DHT22;42950;52.134;5.578;2023-12-22T12:18:49;9.90;99.90
23721;DHT22;42950;52.134;5.578;2023-12-22T12:21:16;9.90;99.90
23721;DHT22;42950;52.134;5.578;2023-12-22T12:23:42;10.00;99.90
23721;DHT22;42950;52.134;5.578;2023-12-22T12:26:08;10.00;99.90
23721;DHT22;42950;52.134;5.578;2023-12-22T12:28:35;10.10;99.90
23721;DHT22;42950;52.134;5.578;2023-12-22T12:31:07;10.10;99.90
23721;DHT22;42950;52.134;5.578;2023-12-22T12:33:35;10.10;99.90
23721;DHT22;42950;52.134;5.578;2023-12-22T12:36:01;10.20;99.90
23721;DHT22;42950;52.134;5.578;2023-12-22T12:41:06;10.20;99.90
23721;DHT22;42950;52.134;5.578;2023-12-22T12:43:34;10.30;99.90
23721;DHT22;42950;52.134;5.578;2023-12-22T12:46:04;10.30;99.90
23721;DHT22;42950;52.134;5.578;2023-12-22T12:48:30;10.30;99.90
23721;DHT22;42950;52.134;5.578;2023-12-22T12:51:02;10.30;99.90
23721;DHT22;42950;52.134;5.578;2023-12-22T12:53:27;10.40;99.90
23721;DHT22;42950;52.134;5.578;2023-12-22T12:55:56;10.40;99.90
23721;DHT22;42950;52.134;5.578;2023-12-22T12:58:21;10.50;99.90
23721;DHT22;42950;52.134;5.578;2023-12-22T13:00:52;10.60;99.90
23721;DHT22;42950;52.134;5.578;2023-12-22T13:03:21;10.50;99.90
23721;DHT22;42950;52.134;5.578;2023-12-22T13:05:48;10.50;99.90
23721;DHT22;42950;52.134;5.578;2023-12-22T13:08:13;10.60;99.90
23721;DHT22;42950;52.134;5.578;2023-12-22T13:10:40;10.60;99.90
23721;DHT22;42950;52.134;5.578;2023-12-22T13:13:06;10.60;99.90
23721;DHT22;42950;52.134;5.578;2023-12-22T13:15:33;10.60;99.90
23721;DHT22;42950;52.134;5.578;2023-12-22T13:17:58;10.60;99.90
23721;DHT22;42950;52.134;5.578;2023-12-22T13:20:25;10.60;99.90
23721;DHT22;42950;52.134;5.578;2023-12-22T13:22:50;10.60;99.90
23721;DHT22;42950;52.134;5.578;2023-12-22T13:25:16;10.60;99.90
23721;DHT22;42950;52.134;5.578;2023-12-22T13:27:49;10.60;99.90
23721;DHT22;42950;52.134;5.578;2023-12-22T13:30:15;10.60;99.90
23721;DHT22;42950;52.134;5.578;2023-12-22T13:32:56;10.50;99.90
23721;DHT22;42950;52.134;5.578;2023-12-22T13:35:23;10.60;99.90
23721;DHT22;42950;52.134;5.578;2023-12-22T13:37:49;10.60;99.90
23721;DHT22;42950;52.134;5.578;2023-12-22T13:40:14;10.60;99.90
23721;DHT22;42950;52.134;5.578;2023-12-22T13:42:40;10.60;99.90
23721;DHT22;42950;52.134;5.578;2023-12-22T13:45:10;10.60;99.90
23721;DHT22;42950;52.134;5.578;2023-12-22T13:47:41;10.60;99.90
23721;DHT22;42950;52.134;5.578;2023-12-22T13:50:16;10.60;99.90
23721;DHT22;42950;52.134;5.578;2023-12-22T13:52:42;10.60;99.90
23721;DHT22;42950;52.134;5.578;2023-12-22T13:55:11;10.50;99.90
23721;DHT22;42950;52.134;5.578;2023-12-22T13:57:37;10.50;99.90
23721;DHT22;42950;52.134;5.578;2023-12-22T14:00:26;10.50;99.90
23721;DHT22;42950;52.134;5.578;2023-12-22T14:02:52;10.50;99.90
23721;DHT22;42950;52.134;5.578;2023-12-22T14:05:20;10.50;99.90
23721;DHT22;42950;52.134;5.578;2023-12-22T14:07:46;10.50;99.90
23721;DHT22;42950;52.134;5.578;2023-12-22T14:10:12;10.50;99.90
23721;DHT22;42950;52.134;5.578;2023-12-22T14:12:39;10.50;99.90
23721;DHT22;42950;52.134;5.578;2023-12-22T14:15:12;10.50;99.90
23721;DHT22;42950;52.134;5.578;2023-12-22T14:17:38;10.40;99.90
23721;DHT22;42950;52.134;5.578;2023-12-22T14:20:04;10.20;99.90
23721;DHT22;42950;52.134;5.578;2023-12-22T14:22:30;10.10;99.90
23721;DHT22;42950;52.134;5.578;2023-12-22T14:24:56;10.00;99.90
23721;DHT22;42950;52.134;5.578;2023-12-22T14:27:24;10.00;99.90
23721;DHT22;42950;52.134;5.578;2023-12-22T14:29:50;10.10;99.90
23721;DHT22;42950;52.134;5.578;2023-12-22T14:32:16;10.10;99.90
23721;DHT22;42950;52.134;5.578;2023-12-22T14:34:44;10.20;99.90
23721;DHT22;42950;52.134;5.578;2023-12-22T14:37:10;10.30;99.90
23721;DHT22;42950;52.134;5.578;2023-12-22T14:39:36;10.30;99.90
23721;DHT22;42950;52.134;5.578;2023-12-22T14:42:01;10.30;99.90
23721;DHT22;42950;52.134;5.578;2023-12-22T14:44:28;10.30;99.90
23721;DHT22;42950;52.134;5.578;2023-12-22T14:46:54;10.30;99.90
23721;DHT22;42950;52.134;5.578;2023-12-22T14:49:20;10.30;99.90
23721;DHT22;42950;52.134;5.578;2023-12-22T14:51:45;10.30;99.90
23721;DHT22;42950;52.134;5.578;2023-12-22T14:54:17;10.30;99.90
23721;DHT22;42950;52.134;5.578;2023-12-22T14:56:42;10.30;99.90
23721;DHT22;42950;52.134;5.578;2023-12-22T14:59:11;10.30;99.90
23721;DHT22;42950;52.134;5.578;2023-12-22T15:01:37;10.30;99.90
23721;DHT22;42950;52.134;5.578;2023-12-22T15:04:04;10.30;99.90
23721;DHT22;42950;52.134;5.578;2023-12-22T15:06:31;10.30;99.90
23721;DHT22;42950;52.134;5.578;2023-12-22T15:08:57;10.30;99.90
23721;DHT22;42950;52.134;5.578;2023-12-22T15:11:25;10.30;99.90
23721;DHT22;42950;52.134;5.578;2023-12-22T15:13:50;10.30;99.90
23721;DHT22;42950;52.134;5.578;2023-12-22T15:16:16;10.40;99.90
23721;DHT22;42950;52.134;5.578;2023-12-22T15:18:41;10.40;99.90
23721;DHT22;42950;52.134;5.578;2023-12-22T15:21:07;10.40;99.90
23721;DHT22;42950;52.134;5.578;2023-12-22T15:23:32;10.30;99.90
23721;DHT22;42950;52.134;5.578;2023-12-22T15:25:58;10.30;99.90
23721;DHT22;42950;52.134;5.578;2023-12-22T15:28:24;10.30;99.90
23721;DHT22;42950;52.134;5.578;2023-12-22T15:30:49;10.30;99.90
23721;DHT22;42950;52.134;5.578;2023-12-22T15:33:15;10.30;99.90
23721;DHT22;42950;52.134;5.578;2023-12-22T15:35:40;10.30;99.90
23721;DHT22;42950;52.134;5.578;2023-12-22T15:38:06;10.30;99.90
23721;DHT22;42950;52.134;5.578;2023-12-22T15:40:31;10.40;99.90
23721;DHT22;42950;52.134;5.578;2023-12-22T15:42:57;10.40;99.90
23721;DHT22;42950;52.134;5.578;2023-12-22T15:45:22;10.40;99.90
23721;DHT22;42950;52.134;5.578;2023-12-22T15:47:48;10.50;99.90
23721;DHT22;42950;52.134;5.578;2023-12-22T15:50:13;10.50;99.90